Time;durP1;ratioP1;P1;durP2;ratioP2;P2;SDS_P1;SDS_P2;PMS_P1;PMS_P2;Temp;Humidity;BMP_temperature;BMP_pressure;BME280_temperature;BME280_humidity;BME280_pressure;Samples;Min_cycle;Max_cycle;Signal;HPM_P1;HPM_P2
2023/08/13 00:00:06;;;;;;;2.40;1.20;;;;;;;22.52;91.72;99698.81;340692;28;4708;-61
2023/08/13 00:00:18;;;;;;;2.30;1.20;;;;;;;22.51;91.66;99697.13;336984;28;19208;-61
2023/08/13 00:00:30;;;;;;;2.00;1.20;;;;;;;22.51;91.56;99697.13;338225;28;18159;-62
2023/08/13 00:00:42;;;;;;;1.50;1.17;;;;;;;22.50;91.66;99690.16;339708;28;5234;-61
2023/08/13 00:00:55;;;;;;;2.00;1.30;;;;;;;22.48;91.67;99692.09;339046;28;10934;-61
2023/08/13 00:01:07;;;;;;;2.78;1.38;;;;;;;22.48;91.88;99697.38;338477;28;17265;-61
2023/08/13 00:01:19;;;;;;;2.17;1.30;;;;;;;22.45;92.06;99692.31;338450;28;4658;-61
2023/08/13 00:01:31;;;;;;;1.93;1.27;;;;;;;22.46;91.80;99694.03;340344;28;4630;-62
2023/08/13 00:01:43;;;;;;;1.58;1.30;;;;;;;22.45;92.06;99697.63;340594;28;5172;-61
2023/08/13 00:01:55;;;;;;;1.67;1.35;;;;;;;22.45;91.89;99692.31;336426;28;18153;-62
2023/08/13 00:02:07;;;;;;;1.75;1.38;;;;;;;22.43;92.18;99694.25;340369;28;4975;-61
2023/08/13 00:02:19;;;;;;;1.70;1.38;;;;;;;22.44;92.21;99696.78;335623;28;4654;-62
2023/08/13 00:02:32;;;;;;;2.42;1.40;;;;;;;22.45;92.26;99697.63;338123;28;18342;-61
2023/08/13 00:02:44;;;;;;;3.20;1.50;;;;;;;22.45;91.95;99697.63;340583;28;5117;-62
2023/08/13 00:02:57;;;;;;;2.55;1.40;;;;;;;22.45;92.21;99698.47;336918;28;17935;-61
2023/08/13 00:03:09;;;;;;;1.70;1.40;;;;;;;22.45;92.37;99698.47;339418;28;4840;-61
2023/08/13 00:03:21;;;;;;;1.52;1.30;;;;;;;22.45;92.07;99694.97;337712;28;18420;-62
2023/08/13 00:03:33;;;;;;;1.70;1.30;;;;;;;22.47;92.21;99693.03;336030;28;4765;-61
2023/08/13 00:03:46;;;;;;;1.90;1.10;;;;;;;22.47;92.27;99701.00;337524;28;18230;-61
2023/08/13 00:03:58;;;;;;;2.10;1.20;;;;;;;22.48;92.08;99697.38;339874;28;5928;-61
2023/08/13 00:04:10;;;;;;;2.55;1.40;;;;;;;22.48;91.79;99692.09;337904;28;12118;-62
2023/08/13 00:04:22;;;;;;;2.30;1.40;;;;;;;22.47;91.68;99696.53;340460;28;4624;-61
2023/08/13 00:04:35;;;;;;;2.15;1.23;;;;;;;22.46;91.72;99700.16;340779;28;5293;-62
2023/08/13 00:04:47;;;;;;;1.75;1.20;;;;;;;22.45;91.75;99697.63;337896;28;18135;-61
2023/08/13 00:04:59;;;;;;;1.60;1.17;;;;;;;22.47;91.57;99693.03;338982;28;7754;-61
2023/08/13 00:05:11;;;;;;;1.63;1.20;;;;;;;22.46;91.36;99689.56;335244;28;5562;-61
2023/08/13 00:05:23;;;;;;;3.55;1.30;;;;;;;22.44;91.74;99688.00;337623;28;19028;-61
2023/08/13 00:05:35;;;;;;;3.88;1.25;;;;;;;22.45;91.87;99698.47;340620;28;5108;-61
2023/08/13 00:05:47;;;;;;;4.07;1.30;;;;;;;22.46;91.59;99696.66;337475;28;18484;-62
2023/08/13 00:05:59;;;;;;;2.38;1.25;;;;;;;22.46;91.78;99702.81;340140;28;4716;-61
2023/08/13 00:06:11;;;;;;;1.92;1.20;;;;;;;22.46;91.46;99694.03;337821;28;12909;-62
2023/08/13 00:06:23;;;;;;;1.20;1.10;;;;;;;22.46;91.50;99696.66;340693;28;5172;-61
2023/08/13 00:06:35;;;;;;;1.38;1.17;;;;;;;22.46;91.43;99696.66;340836;28;4546;-61
2023/08/13 00:06:47;;;;;;;2.20;1.17;;;;;;;22.46;91.47;99694.03;336909;28;13441;-62
2023/08/13 00:07:00;;;;;;;2.53;1.23;;;;;;;22.45;91.63;99697.63;339968;28;5495;-62
2023/08/13 00:07:12;;;;;;;1.88;1.20;;;;;;;22.46;91.42;99697.50;337710;28;11583;-62
2023/08/13 00:07:24;;;;;;;2.63;1.30;;;;;;;22.45;91.50;99693.16;340546;28;4655;-61
2023/08/13 00:07:37;;;;;;;2.67;1.45;;;;;;;22.46;91.41;99694.03;340424;28;5736;-62
2023/08/13 00:07:49;;;;;;;2.15;1.55;;;;;;;22.46;91.42;99696.66;337532;28;18181;-61
2023/08/13 00:08:01;;;;;;;2.83;1.48;;;;;;;22.45;91.50;99698.47;339400;28;4700;-61
2023/08/13 00:08:13;;;;;;;2.58;1.42;;;;;;;22.45;91.23;99698.47;337481;28;17667;-61
2023/08/13 00:08:25;;;;;;;2.08;1.38;;;;;;;22.46;91.14;99699.31;340529;28;4714;-61
2023/08/13 00:08:37;;;;;;;2.13;1.33;;;;;;;22.46;91.25;99696.66;337920;28;11889;-62
2023/08/13 00:08:49;;;;;;;2.53;1.38;;;;;;;22.46;91.23;99697.50;340619;28;5228;-61
2023/08/13 00:09:02;;;;;;;2.83;1.40;;;;;;;22.48;91.40;99702.69;340019;28;4646;-61
2023/08/13 00:09:14;;;;;;;2.38;1.40;;;;;;;22.47;91.51;99695.69;335745;28;19138;-62
2023/08/13 00:09:26;;;;;;;1.98;1.38;;;;;;;22.46;91.47;99704.63;339130;28;4703;-62
2023/08/13 00:09:40;;;;;;;1.67;1.13;;;;;;;22.47;91.11;99698.34;337974;28;11946;-61
2023/08/13 00:09:52;;;;;;;1.23;1.10;;;;;;;22.46;91.33;99697.50;336549;28;17598;-61
2023/08/13 00:10:05;;;;;;;1.30;1.10;;;;;;;22.46;91.47;99699.31;334276;28;18200;-61
2023/08/13 00:10:17;;;;;;;1.50;1.30;;;;;;;22.46;91.44;99699.31;339365;28;4637;-61
2023/08/13 00:10:29;;;;;;;2.55;1.35;;;;;;;22.44;91.56;99695.97;337530;28;4823;-61
2023/08/13 00:10:41;;;;;;;2.70;1.33;;;;;;;22.45;91.68;99700.28;340378;28;4466;-61
2023/08/13 00:10:54;;;;;;;2.08;1.30;;;;;;;22.44;91.79;99695.97;336618;28;4718;-62
2023/08/13 00:11:09;;;;;;;1.70;1.30;;;;;;;22.46;91.53;99694.84;339707;28;4617;-62
2023/08/13 00:11:21;;;;;;;2.03;1.33;;;;;;;22.47;91.79;99695.69;331653;28;17933;-62
2023/08/13 00:11:33;;;;;;;1.90;1.35;;;;;;;22.47;91.56;99695.69;338617;28;5235;-61
2023/08/13 00:11:45;;;;;;;1.45;1.30;;;;;;;22.48;91.64;99697.38;336894;28;8080;-61
2023/08/13 00:11:57;;;;;;;1.40;1.20;;;;;;;22.46;91.67;99699.31;339360;28;4604;-61
2023/08/13 00:12:09;;;;;;;1.38;1.10;;;;;;;22.45;91.66;99698.47;337592;28;4705;-62
2023/08/13 00:12:22;;;;;;;1.98;1.20;;;;;;;22.45;91.49;99698.47;338935;28;4717;-61
2023/08/13 00:12:34;;;;;;;1.92;1.30;;;;;;;22.46;91.75;99699.31;339152;28;4528;-61
2023/08/13 00:12:47;;;;;;;1.63;1.30;;;;;;;22.47;91.63;99701.00;336067;28;18157;-61
2023/08/13 00:12:59;;;;;;;2.20;1.40;;;;;;;22.45;91.37;99697.63;339754;28;4746;-61
2023/08/13 00:13:12;;;;;;;2.03;1.40;;;;;;;22.46;91.40;99694.03;337325;28;19268;-62
2023/08/13 00:13:24;;;;;;;2.55;1.23;;;;;;;22.47;91.59;99695.69;336622;28;5544;-61
2023/08/13 00:13:36;;;;;;;2.83;1.25;;;;;;;22.46;91.45;99692.22;339760;28;5176;-62
2023/08/13 00:13:48;;;;;;;2.90;1.30;;;;;;;22.47;91.43;99695.69;340195;28;4800;-61
2023/08/13 00:14:00;;;;;;;1.80;1.40;;;;;;;22.47;91.46;99696.53;336378;28;17262;-62
2023/08/13 00:14:12;;;;;;;2.08;1.40;;;;;;;22.47;91.30;99696.53;336058;28;6540;-62
2023/08/13 00:14:24;;;;;;;2.17;1.40;;;;;;;22.48;91.20;99695.56;340640;28;5184;-61
2023/08/13 00:14:36;;;;;;;2.45;1.50;;;;;;;22.49;91.19;99699.06;334178;28;18264;-61
2023/08/13 00:14:48;;;;;;;1.92;1.40;;;;;;;22.50;91.00;99695.44;339262;28;5470;-61
2023/08/13 00:15:01;;;;;;;1.80;1.38;;;;;;;22.50;90.79;99687.50;337029;28;10583;-62
2023/08/13 00:15:13;;;;;;;1.80;1.30;;;;;;;22.51;90.71;99694.47;340481;28;4689;-62
2023/08/13 00:15:25;;;;;;;1.58;1.17;;;;;;;22.50;91.04;99695.44;339945;28;5388;-61
2023/08/13 00:15:37;;;;;;;1.20;1.10;;;;;;;22.49;91.00;99689.28;338841;28;18454;-61
2023/08/13 00:15:49;;;;;;;1.20;1.10;;;;;;;22.50;91.05;99692.81;334511;28;6180;-61
2023/08/13 00:16:01;;;;;;;1.50;1.30;;;;;;;22.50;90.81;99695.44;337398;28;5411;-62
2023/08/13 00:16:13;;;;;;;1.98;1.40;;;;;;;22.50;90.87;99698.09;340155;28;5456;-61
2023/08/13 00:16:25;;;;;;;2.00;1.50;;;;;;;22.50;90.76;99695.44;340635;28;4616;-61
2023/08/13 00:16:38;;;;;;;1.48;1.38;;;;;;;22.50;90.93;99695.44;338266;28;18235;-62
2023/08/13 00:16:50;;;;;;;1.80;1.52;;;;;;;22.50;90.78;99698.94;339314;28;5515;-61
2023/08/13 00:17:02;;;;;;;2.00;1.50;;;;;;;22.51;90.53;99686.53;337478;28;17395;-62
2023/08/13 00:17:14;;;;;;;1.83;1.33;;;;;;;22.50;90.99;99698.09;340446;28;5150;-62
2023/08/13 00:17:26;;;;;;;1.33;1.17;;;;;;;22.50;90.76;99690.16;340393;28;4784;-62
2023/08/13 00:17:39;;;;;;;1.67;1.40;;;;;;;22.48;90.79;99692.09;338056;28;18348;-62
2023/08/13 00:17:51;;;;;;;2.08;1.67;;;;;;;22.49;91.06;99693.75;338874;28;4964;-61
2023/08/13 00:18:03;;;;;;;2.03;1.50;;;;;;;22.48;91.14;99684.16;337376;28;17927;-62
2023/08/13 00:18:15;;;;;;;1.63;1.33;;;;;;;22.50;90.76;99700.75;340565;28;4660;-61
2023/08/13 00:18:28;;;;;;;1.35;1.17;;;;;;;22.50;91.18;99695.44;337843;28;16855;-61
2023/08/13 00:18:40;;;;;;;1.30;1.20;;;;;;;22.49;91.00;99693.75;339990;28;4585;-61
2023/08/13 00:18:52;;;;;;;1.30;1.20;;;;;;;22.49;91.10;99688.47;333325;28;5474;-62
2023/08/13 00:19:04;;;;;;;1.38;1.27;;;;;;;22.47;91.17;99693.03;339098;28;4723;-61
2023/08/13 00:19:16;;;;;;;1.73;1.23;;;;;;;22.48;91.08;99690.28;339608;28;4546;-61
2023/08/13 00:19:28;;;;;;;2.25;1.33;;;;;;;22.47;91.24;99688.56;336374;28;18419;-62
2023/08/13 00:19:40;;;;;;;1.95;1.30;;;;;;;22.47;91.33;99690.38;339756;28;5602;-61
2023/08/13 00:19:52;;;;;;;1.73;1.33;;;;;;;22.47;91.13;99690.38;337250;28;12037;-62
2023/08/13 00:20:05;;;;;;;1.40;1.30;;;;;;;22.46;91.04;99686.91;340579;28;5530;-61
2023/08/13 00:20:17;;;;;;;1.70;1.35;;;;;;;22.48;91.53;99689.44;340474;28;4677;-61
2023/08/13 00:20:30;;;;;;;2.25;1.40;;;;;;;22.48;91.36;99686.78;338210;28;17474;-61
2023/08/13 00:20:46;;;;;;;2.60;1.33;;;;;;;22.47;91.23;99685.94;337478;28;16763;-61
2023/08/13 00:20:59;;;;;;;2.50;1.20;;;;;;;22.46;91.22;99684.25;340554;28;5220;-61
2023/08/13 00:21:11;;;;;;;1.80;1.30;;;;;;;22.46;91.26;99686.06;337385;28;19328;-61
2023/08/13 00:21:23;;;;;;;1.73;1.30;;;;;;;22.46;91.26;99683.44;340402;28;4779;-61
2023/08/13 00:21:36;;;;;;;1.90;1.27;;;;;;;22.47;91.14;99685.94;337852;28;18268;-61
2023/08/13 00:21:48;;;;;;;2.05;1.20;;;;;;;22.47;91.20;99688.56;340194;28;5226;-61
2023/08/13 00:22:17;;;;;;;1.95;1.30;;;;;;;22.44;91.33;99685.34;336441;28;17127;-61
2023/08/13 00:22:30;;;;;;;1.58;1.20;;;;;;;22.45;91.52;99687.03;336379;28;18150;-62
2023/08/13 00:22:42;;;;;;;1.90;1.30;;;;;;;22.45;91.24;99687.03;340646;28;5437;-61
2023/08/13 00:22:54;;;;;;;1.75;1.20;;;;;;;22.46;91.31;99686.06;337238;28;16705;-61
2023/08/13 00:23:06;;;;;;;1.67;1.20;;;;;;;22.46;90.85;99683.44;340577;28;5377;-61
2023/08/13 00:23:18;;;;;;;1.67;1.30;;;;;;;22.47;91.14;99690.38;339450;28;4700;-61
2023/08/13 00:23:30;;;;;;;1.70;1.30;;;;;;;22.48;90.58;99686.78;337568;28;16719;-62
2023/08/13 00:23:42;;;;;;;1.30;1.20;;;;;;;22.47;90.57;99679.78;340875;28;4716;-61
2023/08/13 00:23:54;;;;;;;1.40;1.20;;;;;;;22.50;90.84;99684.84;339537;28;7455;-61
2023/08/13 00:24:06;;;;;;;2.05;1.20;;;;;;;22.50;90.86;99684.84;337891;28;18076;-62
2023/08/13 00:24:18;;;;;;;2.30;1.30;;;;;;;22.50;90.79;99684.84;340502;28;4651;-61
2023/08/13 00:24:30;;;;;;;1.92;1.40;;;;;;;22.50;90.67;99687.50;336840;28;18091;-61
2023/08/13 00:24:42;;;;;;;1.50;1.40;;;;;;;22.49;90.65;99684.00;335424;28;5195;-62
2023/08/13 00:24:55;;;;;;;1.45;1.27;;;;;;;22.51;90.69;99689.16;338536;28;12282;-61
2023/08/13 00:25:07;;;;;;;1.50;1.20;;;;;;;22.50;91.01;99690.16;337567;28;19194;-61
2023/08/13 00:25:21;;;;;;;1.63;1.30;;;;;;;22.50;90.94;99684.84;336206;28;12186;-61
2023/08/13 00:25:33;;;;;;;1.50;1.20;;;;;;;22.50;90.94;99687.50;339661;28;5409;-61
2023/08/13 00:25:45;;;;;;;2.05;1.30;;;;;;;22.51;91.12;99692.66;337601;28;18191;-61
2023/08/13 00:25:57;;;;;;;1.80;1.20;;;;;;;22.50;90.90;99691.00;339185;28;4452;-61
2023/08/13 00:26:09;;;;;;;2.00;1.25;;;;;;;22.50;91.17;99685.69;339499;28;4741;-61
2023/08/13 00:26:21;;;;;;;2.00;1.30;;;;;;;22.50;90.99;99687.50;335854;28;4880;-61
2023/08/13 00:26:34;;;;;;;2.15;1.42;;;;;;;22.50;91.23;99685.69;339672;28;5400;-61
2023/08/13 00:26:46;;;;;;;1.88;1.35;;;;;;;22.50;91.08;99687.50;337544;28;18045;-61
2023/08/13 00:26:58;;;;;;;2.80;1.30;;;;;;;22.49;91.06;99685.81;340172;28;4632;-61
2023/08/13 00:27:10;;;;;;;2.80;1.40;;;;;;;22.48;91.10;99686.78;339548;28;4625;-61
2023/08/13 00:27:22;;;;;;;2.78;1.40;;;;;;;22.49;91.02;99683.16;338104;28;18350;-61
2023/08/13 00:27:34;;;;;;;2.38;1.30;;;;;;;22.49;91.33;99688.47;340447;28;4647;-61
2023/08/13 00:27:46;;;;;;;1.80;1.20;;;;;;;22.48;91.64;99681.50;338996;28;4718;-61
2023/08/13 00:27:57;;;;;;;2.67;1.33;;;;;;;22.47;91.23;99690.38;336614;28;19337;-61
2023/08/13 00:28:10;;;;;;;3.45;1.40;;;;;;;22.48;91.47;99686.78;339507;28;5159;-61
2023/08/13 00:28:22;;;;;;;3.20;1.40;;;;;;;22.49;91.05;99688.47;338097;28;18186;-61
2023/08/13 00:28:34;;;;;;;2.35;1.50;;;;;;;22.48;91.18;99684.16;339994;28;5163;-61
2023/08/13 00:28:47;;;;;;;1.90;1.40;;;;;;;22.49;91.03;99688.47;339954;28;5391;-61
2023/08/13 00:28:59;;;;;;;1.73;1.20;;;;;;;22.48;91.13;99681.50;336064;28;18032;-62
2023/08/13 00:29:11;;;;;;;1.67;1.38;;;;;;;22.49;90.85;99688.47;337077;28;12133;-62
2023/08/13 00:29:23;;;;;;;1.67;1.40;;;;;;;22.49;90.87;99686.66;338908;28;5289;-61
2023/08/13 00:29:37;;;;;;;1.58;1.40;;;;;;;22.49;91.11;99684.00;338845;28;4810;-61
2023/08/13 00:29:49;;;;;;;1.80;1.35;;;;;;;22.50;90.70;99683.03;337224;28;18105;-62
2023/08/13 00:30:02;;;;;;;1.58;1.20;;;;;;;22.51;91.17;99687.34;337819;28;12299;-62
2023/08/13 00:30:14;;;;;;;1.95;1.27;;;;;;;22.50;91.18;99683.03;339887;28;4568;-62
2023/08/13 00:30:26;;;;;;;2.00;1.40;;;;;;;22.50;90.68;99684.84;339642;28;12651;-61
2023/08/13 00:30:38;;;;;;;2.28;1.40;;;;;;;22.50;91.00;99680.41;337746;28;14874;-62
2023/08/13 00:30:50;;;;;;;2.60;1.40;;;;;;;22.49;90.95;99683.16;334510;28;4743;-61
2023/08/13 00:31:02;;;;;;;2.22;1.27;;;;;;;22.50;91.34;99679.56;337226;28;11537;-62
2023/08/13 00:31:14;;;;;;;2.10;1.35;;;;;;;22.49;90.95;99678.69;340327;28;4726;-62
2023/08/13 00:31:26;;;;;;;1.60;1.30;;;;;;;22.50;91.33;99674.25;340019;28;5130;-61
2023/08/13 00:31:38;;;;;;;1.88;1.45;;;;;;;22.51;91.12;99681.22;337836;28;18157;-61
2023/08/13 00:31:54;;;;;;;1.60;1.30;;;;;;;22.50;91.15;99676.91;339429;28;5152;-61
2023/08/13 00:32:06;;;;;;;1.83;1.25;;;;;;;22.49;91.07;99681.34;332569;28;18159;-62
2023/08/13 00:32:19;;;;;;;2.10;1.25;;;;;;;22.48;91.11;99682.31;337659;28;16257;-62
2023/08/13 00:32:31;;;;;;;2.10;1.40;;;;;;;22.47;91.09;99679.78;340180;28;4527;-61
2023/08/13 00:32:43;;;;;;;1.90;1.40;;;;;;;22.46;91.15;99680.78;339763;28;5284;-61
2023/08/13 00:32:55;;;;;;;1.95;1.35;;;;;;;22.45;90.91;99674.63;336349;28;18111;-61
2023/08/13 00:33:07;;;;;;;2.60;1.33;;;;;;;22.45;91.07;99677.25;340112;28;4699;-61
2023/08/13 00:33:19;;;;;;;2.53;1.23;;;;;;;22.45;91.08;99679.06;337976;28;5452;-62
2023/08/13 00:33:31;;;;;;;1.73;1.30;;;;;;;22.46;91.07;99672.84;339877;28;4679;-62
2023/08/13 00:33:43;;;;;;;1.60;1.25;;;;;;;22.46;91.01;99672.84;339092;28;12629;-61
2023/08/13 00:33:55;;;;;;;1.50;1.20;;;;;;;22.43;90.82;99673.91;339289;28;4614;-61
2023/08/13 00:34:07;;;;;;;1.48;1.23;;;;;;;22.44;91.05;99674.75;339954;28;5449;-61
2023/08/13 00:34:19;;;;;;;1.45;1.30;;;;;;;22.43;90.82;99676.56;336642;28;18393;-62
2023/08/13 00:34:31;;;;;;;1.45;1.30;;;;;;;22.43;90.77;99681.00;339638;28;4656;-61
2023/08/13 00:34:43;;;;;;;1.77;1.35;;;;;;;22.43;90.94;99676.56;338234;28;11674;-62
2023/08/13 00:34:55;;;;;;;1.85;1.35;;;;;;;22.43;90.66;99671.25;335785;28;19426;-61
2023/08/13 00:35:08;;;;;;;1.52;1.27;;;;;;;22.43;91.08;99673.91;338967;28;5402;-60
2023/08/13 00:35:20;;;;;;;1.35;1.23;;;;;;;22.42;90.75;99676.69;336309;28;18224;-62
2023/08/13 00:35:32;;;;;;;1.70;1.20;;;;;;;22.43;90.74;99667.78;340342;28;5146;-61
2023/08/13 00:35:44;;;;;;;2.85;1.20;;;;;;;22.45;90.75;99671.13;337000;28;18203;-61
2023/08/13 00:35:56;;;;;;;2.47;1.20;;;;;;;22.45;90.74;99676.44;338828;28;5220;-61
2023/08/13 00:36:08;;;;;;;1.88;1.17;;;;;;;22.44;90.69;99677.41;339572;28;12152;-61
2023/08/13 00:36:20;;;;;;;1.60;1.10;;;;;;;22.42;90.63;99676.69;332810;28;17569;-62
2023/08/13 00:36:32;;;;;;;1.55;1.20;;;;;;;22.41;90.77;99680.28;340231;28;4609;-62
2023/08/13 00:36:44;;;;;;;1.48;1.20;;;;;;;22.41;90.65;99678.47;337519;28;11442;-62
2023/08/13 00:36:56;;;;;;;1.50;1.30;;;;;;;22.40;90.83;99679.47;338878;28;5551;-61
2023/08/13 00:37:08;;;;;;;1.60;1.30;;;;;;;22.40;90.85;99681.28;339709;28;4577;-61
2023/08/13 00:37:20;;;;;;;1.35;1.17;;;;;;;22.40;91.00;99683.94;337879;28;16631;-61
2023/08/13 00:37:35;;;;;;;1.27;1.15;;;;;;;22.39;90.72;99683.06;340790;28;4719;-61
2023/08/13 00:37:47;;;;;;;1.42;1.30;;;;;;;22.39;90.70;99682.22;337965;28;18269;-61
2023/08/13 00:37:59;;;;;;;1.30;1.20;;;;;;;22.39;90.38;99687.53;333931;28;4746;-61
2023/08/13 00:38:11;;;;;;;1.17;1.08;;;;;;;22.37;90.52;99678.88;336466;28;18284;-62
2023/08/13 00:38:23;;;;;;;1.63;1.10;;;;;;;22.37;90.86;99676.22;339889;28;4662;-61
2023/08/13 00:38:35;;;;;;;2.13;1.25;;;;;;;22.37;90.78;99682.34;340764;28;4896;-61
2023/08/13 00:38:47;;;;;;;2.03;1.20;;;;;;;22.36;90.58;99683.34;337986;28;18141;-61
2023/08/13 00:38:59;;;;;;;2.10;1.20;;;;;;;22.38;90.73;99685.88;339645;28;4590;-61
2023/08/13 00:39:11;;;;;;;1.92;1.20;;;;;;;22.33;90.55;99679.13;336777;28;18239;-62
2023/08/13 00:39:23;;;;;;;2.40;1.10;;;;;;;22.32;90.71;99682.72;338851;28;4695;-61
2023/08/13 00:39:36;;;;;;;2.30;1.20;;;;;;;22.30;90.85;99679.38;335217;28;4817;-62
2023/08/13 00:39:48;;;;;;;2.40;1.20;;;;;;;22.29;90.88;99688.25;336542;28;18459;-62
2023/08/13 00:40:00;;;;;;;1.40;1.20;;;;;;;22.29;90.78;99684.78;339321;28;4599;-61
2023/08/13 00:40:12;;;;;;;2.03;1.20;;;;;;;22.27;91.07;99679.59;337690;28;19540;-62
2023/08/13 00:40:24;;;;;;;2.88;1.42;;;;;;;22.27;91.42;99674.31;340377;28;4657;-61
2023/08/13 00:40:36;;;;;;;2.10;1.25;;;;;;;22.28;91.34;99683.13;338645;28;5077;-62
2023/08/13 00:40:48;;;;;;;1.50;1.08;;;;;;;22.26;91.35;99682.41;338637;28;18461;-61
2023/08/13 00:41:00;;;;;;;1.27;1.10;;;;;;;22.27;91.12;99684.06;339030;28;6765;-61
2023/08/13 00:41:12;;;;;;;1.48;1.13;;;;;;;22.24;91.27;99679.88;337968;28;18184;-61
2023/08/13 00:41:24;;;;;;;1.65;1.33;;;;;;;22.21;91.16;99685.34;340572;28;5472;-61
2023/08/13 00:41:36;;;;;;;1.90;1.40;;;;;;;22.21;91.16;99680.06;336592;28;5692;-62
2023/08/13 00:41:48;;;;;;;2.70;1.40;;;;;;;22.20;91.36;99683.69;340429;28;4774;-62
2023/08/13 00:42:00;;;;;;;2.72;1.38;;;;;;;22.19;91.29;99682.00;338813;28;4653;-61
2023/08/13 00:42:12;;;;;;;2.30;1.27;;;;;;;22.19;91.71;99687.28;338104;28;18873;-62
2023/08/13 00:42:25;;;;;;;1.65;1.20;;;;;;;22.19;91.81;99679.34;340247;28;5511;-61
2023/08/13 00:42:37;;;;;;;1.90;1.20;;;;;;;22.19;91.76;99679.34;335600;28;5296;-61
2023/08/13 00:42:50;;;;;;;1.70;1.20;;;;;;;22.21;91.66;99684.53;337677;28;18201;-62
2023/08/13 00:43:02;;;;;;;1.40;1.25;;;;;;;22.21;91.06;99682.72;338825;28;4768;-61
2023/08/13 00:43:14;;;;;;;1.52;1.23;;;;;;;22.22;91.43;99681.75;337123;28;18107;-62
2023/08/13 00:43:26;;;;;;;1.50;1.20;;;;;;;22.22;91.02;99676.47;339240;28;4662;-61
2023/08/13 00:43:39;;;;;;;1.85;1.30;;;;;;;22.21;91.35;99680.06;336300;28;18131;-61
2023/08/13 00:43:51;;;;;;;1.73;1.30;;;;;;;22.21;91.30;99679.22;339650;28;4612;-61
2023/08/13 00:44:03;;;;;;;1.55;1.15;;;;;;;22.20;91.33;99683.69;337690;28;18149;-61
2023/08/13 00:44:17;;;;;;;1.23;1.10;;;;;;;22.20;91.38;99678.41;339405;28;5345;-61
2023/08/13 00:44:29;;;;;;;1.35;1.05;;;;;;;22.20;91.42;99678.41;336675;28;17991;-61
2023/08/13 00:44:41;;;;;;;1.40;1.10;;;;;;;22.22;91.26;99684.41;339036;28;4510;-61
2023/08/13 00:44:53;;;;;;;1.20;1.10;;;;;;;22.21;90.95;99684.53;335142;28;18109;-62
2023/08/13 00:45:05;;;;;;;1.30;1.20;;;;;;;22.21;91.34;99681.88;339502;28;5726;-61
2023/08/13 00:45:18;;;;;;;1.45;1.35;;;;;;;22.21;91.05;99685.34;340560;28;4729;-61
2023/08/13 00:45:32;;;;;;;1.73;1.48;;;;;;;22.22;90.79;99679.13;331914;28;16778;-62
2023/08/13 00:45:45;;;;;;;1.42;1.30;;;;;;;22.22;90.73;99676.47;338131;28;17987;-62
2023/08/13 00:45:58;;;;;;;1.98;1.20;;;;;;;22.23;90.71;99678.13;339784;28;5897;-61
2023/08/13 00:46:10;;;;;;;2.42;1.40;;;;;;;22.23;90.52;99679.94;337258;28;18321;-62
2023/08/13 00:46:22;;;;;;;2.60;1.40;;;;;;;22.23;90.98;99678.13;340166;28;4534;-61
2023/08/13 00:46:36;;;;;;;1.40;1.20;;;;;;;22.23;90.95;99686.06;337881;28;18344;-61
2023/08/13 00:46:48;;;;;;;2.15;1.25;;;;;;;22.23;90.84;99678.13;339858;28;4543;-61
2023/08/13 00:47:01;;;;;;;2.25;1.20;;;;;;;22.22;90.71;99680.94;335626;28;18331;-61
2023/08/13 00:47:13;;;;;;;1.60;1.27;;;;;;;22.20;90.83;99673.09;339543;28;4711;-61
2023/08/13 00:47:26;;;;;;;1.42;1.20;;;;;;;22.21;90.86;99679.22;333707;28;18197;-61
2023/08/13 00:47:38;;;;;;;1.38;1.27;;;;;;;22.21;90.95;99680.06;339023;28;4707;-61
2023/08/13 00:47:50;;;;;;;1.98;1.42;;;;;;;22.20;90.78;99678.41;336606;28;18040;-62
2023/08/13 00:48:05;;;;;;;2.80;1.50;;;;;;;22.19;90.54;99682.00;339571;28;5238;-61
2023/08/13 00:48:17;;;;;;;2.40;1.40;;;;;;;22.20;90.63;99673.09;337275;28;18184;-61
2023/08/13 00:48:30;;;;;;;1.42;1.33;;;;;;;22.18;90.53;99672.38;338012;28;4729;-62
2023/08/13 00:48:43;;;;;;;1.60;1.30;;;;;;;22.19;90.62;99682.00;339749;28;4636;-61
2023/08/13 00:48:58;;;;;;;1.70;1.20;;;;;;;22.20;90.83;99677.56;337430;28;17710;-61
2023/08/13 00:49:10;;;;;;;1.88;1.40;;;;;;;22.18;91.01;99679.50;337143;28;15975;-62
2023/08/13 00:49:27;;;;;;;1.83;1.23;;;;;;;22.19;90.65;99681.16;337902;28;18122;-62
2023/08/13 00:49:39;;;;;;;1.95;1.38;;;;;;;22.17;90.62;99683.94;339604;28;4699;-61
2023/08/13 00:49:51;;;;;;;3.50;1.67;;;;;;;22.18;90.54;99680.34;336342;28;9962;-62
2023/08/13 00:50:04;;;;;;;3.08;1.50;;;;;;;22.18;90.40;99677.69;339635;28;4819;-61
2023/08/13 00:50:17;;;;;;;3.10;1.40;;;;;;;22.18;90.77;99675.03;338004;28;18252;-61
2023/08/13 00:50:29;;;;;;;3.60;1.35;;;;;;;22.18;90.85;99685.63;340490;28;5425;-61
2023/08/13 00:50:44;;;;;;;3.53;1.38;;;;;;;22.18;90.46;99675.03;337607;28;18362;-62
2023/08/13 00:50:57;;;;;;;2.65;1.30;;;;;;;22.18;90.93;99679.50;336769;28;17188;-62
2023/08/13 00:51:11;;;;;;;1.55;1.35;;;;;;;22.17;90.71;99678.63;339093;28;4650;-61
2023/08/13 00:51:23;;;;;;;1.40;1.30;;;;;;;22.17;90.77;99683.94;337585;28;19230;-61
2023/08/13 00:51:36;;;;;;;2.03;1.27;;;;;;;22.16;90.72;99682.25;338239;28;12202;-61
2023/08/13 00:51:48;;;;;;;2.78;1.20;;;;;;;22.15;91.18;99683.22;339800;28;4648;-61
2023/08/13 00:52:01;;;;;;;2.42;1.20;;;;;;;22.16;91.15;99674.31;337488;28;4748;-62
2023/08/13 00:52:13;;;;;;;1.40;1.30;;;;;;;22.16;91.08;99684.06;338974;28;4810;-61
2023/08/13 00:52:25;;;;;;;1.40;1.30;;;;;;;22.14;90.82;99678.91;337851;28;12102;-62
2023/08/13 00:52:38;;;;;;;1.40;1.30;;;;;;;22.14;90.86;99677.09;340778;28;4624;-62
2023/08/13 00:52:50;;;;;;;1.50;1.33;;;;;;;22.14;91.35;99673.59;339888;28;4655;-61
2023/08/13 00:53:06;;;;;;;1.40;1.30;;;;;;;22.13;91.31;99683.34;335519;28;4765;-62
2023/08/13 00:53:18;;;;;;;1.55;1.42;;;;;;;22.12;90.76;99680.81;336007;28;18078;-62
2023/08/13 00:53:34;;;;;;;1.92;1.40;;;;;;;22.12;90.62;99681.66;340549;28;6355;-61
2023/08/13 00:53:46;;;;;;;2.03;1.30;;;;;;;22.12;91.02;99680.81;337070;28;17570;-61
2023/08/13 00:53:59;;;;;;;2.03;1.38;;;;;;;22.12;90.62;99680.81;339370;28;4661;-62
2023/08/13 00:54:12;;;;;;;1.88;1.40;;;;;;;22.12;90.68;99686.13;339959;28;4693;-61
2023/08/13 00:54:24;;;;;;;1.75;1.30;;;;;;;22.12;90.70;99683.47;337970;28;18433;-62
2023/08/13 00:54:36;;;;;;;1.80;1.30;;;;;;;22.11;90.88;99679.13;339891;28;5187;-61
2023/08/13 00:54:48;;;;;;;1.83;1.30;;;;;;;22.12;90.70;99675.53;337648;28;18283;-61
2023/08/13 00:55:00;;;;;;;1.45;1.27;;;;;;;22.09;91.13;99683.69;339336;28;4579;-61
2023/08/13 00:55:12;;;;;;;1.45;1.17;;;;;;;22.09;90.89;99673.97;337199;28;18356;-62
2023/08/13 00:55:25;;;;;;;1.60;1.38;;;;;;;22.09;90.83;99681.91;338932;28;4747;-61
2023/08/13 00:55:37;;;;;;;1.73;1.40;;;;;;;22.10;91.01;99682.75;338796;28;18362;-61
2023/08/13 00:55:50;;;;;;;1.90;1.35;;;;;;;22.09;90.89;99675.75;333428;28;18520;-62
2023/08/13 00:56:02;;;;;;;1.88;1.38;;;;;;;22.08;91.41;99684.69;339913;28;4902;-61
2023/08/13 00:56:15;;;;;;;1.45;1.20;;;;;;;22.09;91.22;99686.34;337025;28;18780;-62
2023/08/13 00:56:27;;;;;;;1.30;1.10;;;;;;;22.08;91.24;99676.75;338709;28;4659;-61
2023/08/13 00:56:40;;;;;;;1.30;1.15;;;;;;;22.09;91.16;99684.56;336086;28;18446;-61
2023/08/13 00:56:53;;;;;;;1.17;1.08;;;;;;;22.10;91.04;99682.75;336698;28;12249;-61
2023/08/13 00:57:06;;;;;;;1.13;1.02;;;;;;;22.10;91.07;99677.47;339066;28;4609;-61
2023/08/13 00:57:18;;;;;;;1.30;1.17;;;;;;;22.09;91.21;99681.06;337362;28;4681;-62
2023/08/13 00:57:30;;;;;;;2.22;1.30;;;;;;;22.09;91.43;99681.06;340706;28;4694;-62
2023/08/13 00:57:42;;;;;;;2.22;1.30;;;;;;;22.08;91.45;99680.22;338768;28;4734;-62
2023/08/13 00:57:54;;;;;;;1.63;1.15;;;;;;;22.07;91.14;99677.69;338169;28;18177;-61
2023/08/13 00:58:06;;;;;;;1.40;1.20;;;;;;;22.07;91.45;99675.03;339714;28;4665;-61
2023/08/13 00:58:19;;;;;;;1.55;1.23;;;;;;;22.07;91.29;99682.97;336810;28;18352;-61
2023/08/13 00:58:31;;;;;;;1.50;1.20;;;;;;;22.08;90.96;99679.38;339182;28;4680;-61
2023/08/13 00:58:43;;;;;;;1.58;1.15;;;;;;;22.06;90.74;99671.56;336596;28;16707;-61
2023/08/13 00:58:55;;;;;;;1.60;1.20;;;;;;;22.07;91.05;99682.97;339096;28;4592;-61
2023/08/13 00:59:08;;;;;;;1.88;1.30;;;;;;;22.08;91.12;99676.75;337481;28;4812;-62
2023/08/13 00:59:21;;;;;;;1.85;1.30;;;;;;;22.08;90.54;99680.22;339869;28;18075;-62
2023/08/13 00:59:33;;;;;;;1.73;1.40;;;;;;;22.08;90.70;99674.94;338264;28;12078;-61